createdAt,value
2023-03-06T00:01:01.982Z,70.83
2023-03-06T00:02:03.881Z,70.63
2023-03-06T00:03:06.818Z,70.66
2023-03-06T00:04:08.964Z,70.60
2023-03-06T00:05:11.898Z,70.53
2023-03-06T00:06:14.134Z,70.37
2023-03-06T00:07:16.144Z,70.84
2023-03-06T00:08:17.875Z,70.61
2023-03-06T00:09:19.652Z,70.36
2023-03-06T00:10:24.668Z,70.32
2023-03-06T00:11:26.795Z,70.49
2023-03-06T00:12:29.500Z,70.09
2023-03-06T00:13:31.473Z,70.08
2023-03-06T00:14:33.360Z,70.36
2023-03-06T00:15:35.164Z,71.13
2023-03-06T00:16:37.026Z,71.58
2023-03-06T00:17:39.411Z,71.71
2023-03-06T00:18:41.159Z,71.90
2023-03-06T00:19:43.011Z,71.31
2023-03-06T00:20:45.259Z,71.61
2023-03-06T00:21:47.186Z,71.31
2023-03-06T00:22:50.174Z,71.31
2023-03-06T00:23:52.082Z,71.76
2023-03-06T00:24:54.242Z,71.76
2023-03-06T00:25:56.220Z,71.62
2023-03-06T00:26:58.013Z,71.63
2023-03-06T00:27:59.914Z,71.87
2023-03-06T00:29:01.947Z,71.86
2023-03-06T00:30:08.526Z,71.92
2023-03-06T00:31:10.356Z,71.94
2023-03-06T00:32:12.504Z,72.08
2023-03-06T00:33:14.339Z,72.66
2023-03-06T00:34:16.339Z,72.86
2023-03-06T00:35:18.341Z,72.60
2023-03-06T00:36:20.134Z,72.48
2023-03-06T00:37:23.701Z,72.48
2023-03-06T00:38:25.553Z,72.33
2023-03-06T00:39:27.546Z,72.08
2023-03-06T00:40:29.291Z,72.04
2023-03-06T00:41:31.352Z,71.79
2023-03-06T00:42:33.460Z,71.59
2023-03-06T00:43:35.328Z,71.20
2023-03-06T00:44:37.177Z,71.05
2023-03-06T00:45:39.410Z,71.11
2023-03-06T00:46:41.219Z,71.61
2023-03-06T00:47:43.502Z,71.67
2023-03-06T00:48:45.584Z,71.50
2023-03-06T00:49:47.610Z,71.36
2023-03-06T00:50:49.986Z,71.39
2023-03-06T00:51:51.903Z,71.07
2023-03-06T00:52:54.055Z,70.94
2023-03-06T00:53:55.874Z,71.11
2023-03-06T00:54:57.672Z,71.33
2023-03-06T00:55:59.423Z,71.94
2023-03-06T00:57:01.184Z,71.87
2023-03-06T00:58:03.061Z,71.95
2023-03-06T00:59:04.894Z,72.30
2023-03-06T01:00:08.575Z,72.26
2023-03-06T01:01:10.496Z,72.23
2023-03-06T01:02:12.481Z,72.41
2023-03-06T01:03:14.555Z,72.17
2023-03-06T01:04:16.355Z,72.03
2023-03-06T01:05:18.193Z,71.95
2023-03-06T01:06:20.061Z,71.91
2023-03-06T01:07:21.930Z,71.81
2023-03-06T01:08:23.831Z,71.45
2023-03-06T01:09:26.198Z,71.33
2023-03-06T01:10:28.377Z,71.41
2023-03-06T01:11:31.090Z,70.82
2023-03-06T01:12:32.895Z,71.08
2023-03-06T01:13:34.744Z,71.33
2023-03-06T01:14:36.544Z,71.57
2023-03-06T01:15:38.320Z,71.29
2023-03-06T01:16:40.114Z,71.56
2023-03-06T01:17:41.905Z,71.41
2023-03-06T01:18:43.669Z,71.48
2023-03-06T01:19:45.468Z,71.70
2023-03-06T01:20:47.511Z,71.52
2023-03-06T01:21:49.386Z,71.67
2023-03-06T01:22:51.203Z,72.09
2023-03-06T01:23:53.268Z,72.09
2023-03-06T01:24:55.141Z,72.46
2023-03-06T01:25:57.196Z,72.35
2023-03-06T01:26:59.125Z,72.15
2023-03-06T01:28:00.968Z,72.48
2023-03-06T01:29:03.242Z,72.41
2023-03-06T01:30:06.323Z,72.51
2023-03-06T01:31:09.773Z,72.67
2023-03-06T01:32:11.849Z,72.58
2023-03-06T01:33:13.889Z,72.56
2023-03-06T01:34:15.599Z,72.71
2023-03-06T01:35:17.448Z,72.65
2023-03-06T01:36:19.345Z,72.79
2023-03-06T01:37:21.112Z,72.54
2023-03-06T01:38:23.125Z,73.06
2023-03-06T01:39:24.976Z,72.71
2023-03-06T01:40:27.047Z,72.37
2023-03-06T01:41:29.007Z,71.94
2023-03-06T01:42:32.199Z,71.99
2023-03-06T01:43:36.715Z,72.25
2023-03-06T01:45:01.614Z,72.11
2023-03-06T01:46:31.256Z,72.48
2023-03-06T01:47:33.347Z,72.64
2023-03-06T01:48:35.602Z,72.69
2023-03-06T01:49:40.351Z,72.83
2023-03-06T01:50:42.480Z,73.17
2023-03-06T01:51:58.827Z,73.81
2023-03-06T01:53:01.236Z,74.28
2023-03-06T01:54:09.262Z,74.56
2023-03-06T01:55:20.362Z,74.57
2023-03-06T01:56:23.621Z,74.32
2023-03-06T01:57:35.388Z,74.36
2023-03-06T01:58:38.605Z,74.30
2023-03-06T01:59:42.790Z,74.39
2023-03-06T02:00:44.729Z,74.38
2023-03-06T02:01:47.398Z,74.62
2023-03-06T02:03:21.650Z,74.72
2023-03-06T02:04:24.186Z,75.00
2023-03-06T02:05:26.106Z,74.83
2023-03-06T02:06:29.358Z,74.91
2023-03-06T02:07:32.473Z,74.66
2023-03-06T02:08:34.503Z,74.63
2023-03-06T02:09:38.307Z,74.42
2023-03-06T02:10:43.374Z,74.08
2023-03-06T02:11:45.403Z,73.90
2023-03-06T02:12:49.774Z,73.71
2023-03-06T02:13:54.167Z,73.56
2023-03-06T02:14:56.641Z,73.69
2023-03-06T02:15:58.922Z,73.71
2023-03-06T02:17:00.787Z,73.67
2023-03-06T02:18:02.721Z,73.50
2023-03-06T02:19:41.741Z,73.85
2023-03-06T02:20:49.220Z,74.40
2023-03-06T02:21:51.363Z,74.38
2023-03-06T02:23:07.307Z,74.21
2023-03-06T02:24:30.526Z,74.27
2023-03-06T02:25:45.227Z,73.99
2023-03-06T02:26:48.188Z,74.00
2023-03-06T02:27:50.097Z,73.95
2023-03-06T02:28:52.029Z,73.92
2023-03-06T02:29:54.486Z,73.75
2023-03-06T02:30:56.721Z,74.02
2023-03-06T02:31:58.499Z,73.87
2023-03-06T02:33:00.400Z,73.75
2023-03-06T02:34:05.956Z,73.38
2023-03-06T02:35:23.564Z,73.18
2023-03-06T02:36:25.400Z,73.12
2023-03-06T02:37:29.112Z,73.05
2023-03-06T02:38:40.895Z,73.20
2023-03-06T02:39:47.037Z,73.28
2023-03-06T02:40:51.185Z,73.44
2023-03-06T02:41:53.424Z,73.32
2023-03-06T02:42:57.608Z,73.34
2023-03-06T02:43:59.387Z,73.32
2023-03-06T02:45:03.690Z,72.80
2023-03-06T02:46:06.192Z,72.08
2023-03-06T02:47:08.079Z,72.09
2023-03-06T02:48:10.603Z,72.86
2023-03-06T02:49:12.565Z,73.85
2023-03-06T02:50:14.666Z,74.32
2023-03-06T02:51:16.423Z,74.57
2023-03-06T02:52:18.403Z,74.61
2023-03-06T02:53:21.064Z,74.86
2023-03-06T02:54:22.866Z,74.89
2023-03-06T02:55:24.973Z,74.75
2023-03-06T02:56:26.757Z,75.01
2023-03-06T02:57:28.479Z,74.94
2023-03-06T02:58:30.213Z,74.82
2023-03-06T02:59:31.969Z,74.57
2023-03-06T03:00:37.248Z,74.88
2023-03-06T03:01:39.224Z,75.08
2023-03-06T03:02:41.765Z,74.98
2023-03-06T03:03:44.019Z,74.42
2023-03-06T03:04:45.879Z,74.28
2023-03-06T03:05:47.628Z,73.87
2023-03-06T03:06:49.338Z,73.76
2023-03-06T03:07:51.248Z,73.05
2023-03-06T03:08:52.988Z,73.25
2023-03-06T03:09:54.692Z,73.38
2023-03-06T03:10:56.768Z,73.52
2023-03-06T03:11:58.835Z,73.92
2023-03-06T03:13:00.995Z,74.18
2023-03-06T03:14:02.817Z,74.05
2023-03-06T03:15:05.441Z,74.29
2023-03-06T03:16:13.177Z,74.43
2023-03-06T03:17:15.373Z,74.43
2023-03-06T03:18:17.140Z,74.31
2023-03-06T03:19:19.111Z,74.55
2023-03-06T03:20:22.520Z,74.70
2023-03-06T03:21:24.643Z,74.46
2023-03-06T03:22:26.506Z,74.79
2023-03-06T03:23:28.285Z,74.69
2023-03-06T03:24:30.137Z,74.49
2023-03-06T03:25:31.952Z,74.43
2023-03-06T03:26:33.806Z,74.65
2023-03-06T03:27:35.590Z,74.47
2023-03-06T03:28:37.830Z,74.22
2023-03-06T03:29:39.888Z,74.16
2023-03-06T03:30:42.574Z,73.79
2023-03-06T03:31:44.716Z,74.05
2023-03-06T03:32:46.512Z,74.13
2023-03-06T03:33:48.209Z,74.13
2023-03-06T03:34:50.042Z,74.03
2023-03-06T03:36:02.244Z,73.86
2023-03-06T03:37:04.588Z,73.60
2023-03-06T03:38:06.455Z,73.24
2023-03-06T03:39:08.420Z,73.27
2023-03-06T03:40:10.690Z,73.29
2023-03-06T03:41:12.599Z,73.15
2023-03-06T03:42:14.325Z,73.46
2023-03-06T03:43:16.218Z,73.32
2023-03-06T03:44:18.348Z,73.05
2023-03-06T03:45:20.561Z,73.38
2023-03-06T03:46:22.786Z,73.23
2023-03-06T03:47:25.006Z,73.36
2023-03-06T03:48:26.950Z,73.00
2023-03-06T03:49:28.649Z,72.94
2023-03-06T03:50:30.342Z,72.91
2023-03-06T03:51:32.839Z,72.99
2023-03-06T03:52:34.586Z,72.61
2023-03-06T03:53:36.461Z,72.55
2023-03-06T03:54:38.574Z,72.85
2023-03-06T03:55:40.407Z,73.09
2023-03-06T03:56:42.307Z,73.27
2023-03-06T03:57:44.415Z,73.29
2023-03-06T03:58:46.305Z,74.08
2023-03-06T03:59:47.984Z,73.96
2023-03-06T04:00:49.826Z,73.86
2023-03-06T04:01:51.605Z,73.57
2023-03-06T04:02:53.321Z,73.76
2023-03-06T04:03:55.131Z,73.62
2023-03-06T04:04:57.266Z,73.85
2023-03-06T04:06:00.270Z,73.05
2023-03-06T04:07:02.086Z,72.60
2023-03-06T04:08:04.273Z,72.29
2023-03-06T04:09:06.288Z,71.88
2023-03-06T04:10:09.712Z,72.17
2023-03-06T04:11:12.040Z,72.23
2023-03-06T04:12:13.791Z,72.18
2023-03-06T04:13:15.548Z,71.14
2023-03-06T04:14:17.301Z,70.65
2023-03-06T04:15:19.659Z,70.44
2023-03-06T04:16:21.800Z,69.72
2023-03-06T04:17:24.324Z,69.87
2023-03-06T04:18:26.292Z,69.71
2023-03-06T04:19:28.052Z,69.70
2023-03-06T04:20:29.921Z,69.95
2023-03-06T04:21:31.724Z,69.90
2023-03-06T04:22:33.440Z,70.10
2023-03-06T04:23:35.162Z,70.42
2023-03-06T04:24:36.979Z,70.18
2023-03-06T04:25:39.059Z,70.11
2023-03-06T04:26:41.428Z,70.12
2023-03-06T04:27:43.253Z,70.25
2023-03-06T04:28:45.208Z,70.25
2023-03-06T04:29:47.026Z,70.29
2023-03-06T04:30:48.768Z,70.42
2023-03-06T04:31:50.560Z,70.45
2023-03-06T04:32:52.321Z,70.63
2023-03-06T04:33:54.057Z,70.85
2023-03-06T04:34:55.900Z,71.07
2023-03-06T04:35:57.656Z,70.98
2023-03-06T04:36:59.859Z,70.78
2023-03-06T04:38:01.874Z,70.78
2023-03-06T04:39:04.232Z,70.83
2023-03-06T04:40:06.654Z,70.77
2023-03-06T04:41:08.566Z,70.68
2023-03-06T04:42:10.446Z,70.43
2023-03-06T04:43:12.384Z,70.54
2023-03-06T04:44:14.290Z,70.61
2023-03-06T04:45:16.663Z,70.33
2023-03-06T04:46:18.519Z,70.63
2023-03-06T04:47:20.399Z,70.63
2023-03-06T04:48:22.310Z,70.47
2023-03-06T04:49:24.473Z,70.47
2023-03-06T04:50:28.418Z,70.45
2023-03-06T04:51:30.211Z,70.76
2023-03-06T04:52:32.088Z,70.96
2023-03-06T04:53:33.866Z,71.09
2023-03-06T04:54:35.638Z,71.16
2023-03-06T04:55:37.707Z,71.19
2023-03-06T04:56:39.550Z,71.66
2023-03-06T04:57:43.988Z,71.87
2023-03-06T04:58:45.941Z,72.16
2023-03-06T04:59:47.817Z,72.29
2023-03-06T05:00:49.677Z,72.46
2023-03-06T05:01:51.504Z,72.83
2023-03-06T05:02:53.232Z,72.71
2023-03-06T05:03:54.962Z,72.60
2023-03-06T05:04:56.771Z,72.66
2023-03-06T05:05:58.562Z,72.49
2023-03-06T05:07:00.491Z,72.68
2023-03-06T05:08:02.254Z,72.84
2023-03-06T05:09:04.208Z,73.10
2023-03-06T05:10:06.922Z,73.23
2023-03-06T05:11:08.931Z,72.96
2023-03-06T05:12:10.713Z,73.05
2023-03-06T05:13:12.582Z,73.17
2023-03-06T05:14:14.274Z,72.94
2023-03-06T05:15:16.049Z,72.83
2023-03-06T05:16:17.868Z,72.97
2023-03-06T05:17:20.085Z,73.61
2023-03-06T05:18:22.790Z,73.64
2023-03-06T05:19:25.161Z,73.53
2023-03-06T05:20:27.196Z,73.64
2023-03-06T05:21:29.092Z,73.59
2023-03-06T05:22:30.807Z,73.44
2023-03-06T05:23:34.488Z,73.47
2023-03-06T05:24:37.136Z,73.49
2023-03-06T05:25:40.202Z,73.73
2023-03-06T05:26:42.058Z,73.67
2023-03-06T05:27:43.902Z,74.07
2023-03-06T05:28:45.781Z,74.10
2023-03-06T05:29:47.571Z,73.91
2023-03-06T05:30:49.893Z,73.66
2023-03-06T05:31:52.708Z,73.57
2023-03-06T05:32:54.715Z,73.81
2023-03-06T05:33:57.999Z,73.71
2023-03-06T05:34:59.798Z,74.22
2023-03-06T05:36:01.945Z,74.08
2023-03-06T05:37:06.079Z,74.27
2023-03-06T05:38:07.997Z,73.83
2023-03-06T05:39:10.333Z,73.90
2023-03-06T05:40:12.813Z,73.83
2023-03-06T05:41:14.507Z,73.41
2023-03-06T05:42:16.305Z,73.07
2023-03-06T05:43:18.178Z,72.06
2023-03-06T05:44:20.079Z,71.91
2023-03-06T05:45:22.219Z,71.74
2023-03-06T05:46:24.141Z,71.99
2023-03-06T05:47:26.348Z,72.14
2023-03-06T05:48:28.331Z,71.88
2023-03-06T05:49:36.862Z,71.88
2023-03-06T05:50:38.729Z,72.07
2023-03-06T05:51:40.555Z,71.73
2023-03-06T05:52:42.544Z,71.46
2023-03-06T05:53:44.476Z,71.79
2023-03-06T05:54:51.402Z,72.10
2023-03-06T05:56:06.112Z,72.58
2023-03-06T05:57:07.972Z,72.88
2023-03-06T05:58:09.988Z,73.14
2023-03-06T05:59:11.661Z,73.23
2023-03-06T06:00:14.846Z,73.45
2023-03-06T06:01:19.491Z,73.50
2023-03-06T06:02:21.546Z,73.61
2023-03-06T06:03:24.328Z,73.67
2023-03-06T06:04:27.376Z,73.92
2023-03-06T06:05:29.227Z,73.70
2023-03-06T06:06:30.987Z,73.72
2023-03-06T06:07:32.902Z,73.72
2023-03-06T06:08:35.310Z,73.74
2023-03-06T06:09:36.983Z,73.70
2023-03-06T06:10:39.671Z,73.79
2023-03-06T06:11:41.471Z,73.73
2023-03-06T06:12:44.291Z,73.37
2023-03-06T06:13:47.850Z,72.90
2023-03-06T06:14:49.818Z,72.66
2023-03-06T06:15:51.697Z,72.80
2023-03-06T06:16:54.477Z,72.19
2023-03-06T06:17:57.288Z,72.36
2023-03-06T06:18:59.005Z,72.70
2023-03-06T06:20:01.021Z,73.16
2023-03-06T06:21:08.004Z,73.05
2023-03-06T06:22:10.245Z,73.15
2023-03-06T06:23:12.069Z,73.12
2023-03-06T06:24:15.692Z,72.65
2023-03-06T06:25:17.524Z,72.00
2023-03-06T06:26:19.357Z,72.11
2023-03-06T06:27:21.233Z,72.06
2023-03-06T06:28:23.168Z,71.87
2023-03-06T06:29:26.876Z,71.69
2023-03-06T06:30:29.004Z,71.69
2023-03-06T06:31:31.005Z,70.66
2023-03-06T06:32:32.832Z,70.53
2023-03-06T06:33:34.619Z,70.36
2023-03-06T06:34:36.339Z,69.87
2023-03-06T06:35:38.276Z,68.62
2023-03-06T06:36:41.330Z,66.60
2023-03-06T06:37:43.175Z,66.47
2023-03-06T06:38:45.340Z,65.94
2023-03-06T06:39:47.382Z,65.01
2023-03-06T06:41:11.740Z,64.57
2023-03-06T06:42:29.808Z,64.64
2023-03-06T06:43:32.991Z,63.50
2023-03-06T06:44:34.699Z,64.25
2023-03-06T06:45:36.915Z,64.26
2023-03-06T06:48:00.645Z,63.32
2023-03-06T06:49:02.341Z,62.54
2023-03-06T06:50:04.650Z,62.82
2023-03-06T06:51:06.925Z,62.78
2023-03-06T06:52:08.996Z,62.76
2023-03-06T06:53:11.093Z,63.19
2023-03-06T06:54:12.851Z,64.40
2023-03-06T06:55:14.732Z,64.29
2023-03-06T06:56:16.457Z,63.69
2023-03-06T06:57:18.198Z,62.72
2023-03-06T06:58:19.933Z,61.43
2023-03-06T06:59:21.862Z,61.94
2023-03-06T07:00:24.639Z,61.92
2023-03-06T07:01:26.549Z,60.74
2023-03-06T07:02:28.651Z,60.21
2023-03-06T07:03:31.207Z,60.39
2023-03-06T07:04:33.016Z,60.28
2023-03-06T07:05:34.935Z,59.50
2023-03-06T07:06:36.687Z,58.81
2023-03-06T07:07:38.995Z,59.39
2023-03-06T07:08:40.705Z,58.56
2023-03-06T07:09:42.658Z,58.37
2023-03-06T07:10:44.575Z,58.55
2023-03-06T07:11:46.277Z,59.30
2023-03-06T07:12:48.228Z,59.15
2023-03-06T07:13:50.845Z,59.50
2023-03-06T07:14:53.118Z,58.93
2023-03-06T07:15:54.819Z,59.37
2023-03-06T07:16:56.581Z,59.08
2023-03-06T07:17:58.250Z,59.22
2023-03-06T07:18:59.936Z,59.09
2023-03-06T07:20:01.839Z,57.76
2023-03-06T07:21:04.021Z,56.17
2023-03-06T07:22:05.934Z,55.25
2023-03-06T07:23:11.652Z,55.13
2023-03-06T07:24:13.387Z,55.25
2023-03-06T07:25:15.716Z,55.38
2023-03-06T07:26:17.461Z,53.56
2023-03-06T07:27:19.283Z,53.88
2023-03-06T07:28:21.852Z,54.08
2023-03-06T07:29:23.556Z,53.42
2023-03-06T07:30:25.642Z,52.59
2023-03-06T07:31:27.754Z,52.80
2023-03-06T07:32:29.442Z,51.47
2023-03-06T07:33:31.258Z,51.27
2023-03-06T07:34:32.974Z,51.72
2023-03-06T07:35:35.042Z,52.76
2023-03-06T07:36:36.757Z,54.44
2023-03-06T07:37:38.565Z,53.57
2023-03-06T07:38:40.332Z,52.57
2023-03-06T07:39:42.216Z,51.09
2023-03-06T07:40:44.201Z,51.83
2023-03-06T07:41:46.293Z,53.34
2023-03-06T07:42:48.598Z,51.57
2023-03-06T07:43:51.315Z,52.31
2023-03-06T07:44:53.343Z,52.36
2023-03-06T07:45:59.474Z,51.96
2023-03-06T07:47:01.281Z,50.70
2023-03-06T07:48:05.512Z,52.29
2023-03-06T07:49:07.998Z,51.64
2023-03-06T07:50:10.572Z,50.79
2023-03-06T07:51:18.335Z,51.41
2023-03-06T07:52:20.145Z,51.85
2023-03-06T07:53:22.078Z,51.35
2023-03-06T07:54:24.336Z,50.60
2023-03-06T07:55:26.404Z,49.33
2023-03-06T07:56:28.598Z,49.17
2023-03-06T07:57:31.025Z,49.32
2023-03-06T07:58:32.929Z,49.26
2023-03-06T07:59:34.775Z,49.28
2023-03-06T08:00:36.538Z,50.44
2023-03-06T08:01:38.303Z,49.44
2023-03-06T08:02:41.372Z,49.03
2023-03-06T08:03:43.570Z,48.29
2023-03-06T08:04:45.473Z,47.35
2023-03-06T08:05:47.301Z,47.28
2023-03-06T08:06:50.172Z,48.29
2023-03-06T08:07:52.005Z,47.41
2023-03-06T08:08:55.209Z,48.27
2023-03-06T08:09:56.954Z,48.22
2023-03-06T08:10:58.681Z,47.55
2023-03-06T08:12:00.495Z,47.41
2023-03-06T08:13:02.264Z,46.42
2023-03-06T08:14:04.235Z,45.98
2023-03-06T08:15:08.994Z,46.71
2023-03-06T08:16:12.068Z,45.62
2023-03-06T08:17:13.962Z,46.38
2023-03-06T08:18:16.087Z,42.86
2023-03-06T08:19:18.199Z,43.34
2023-03-06T08:20:20.017Z,44.58
2023-03-06T08:21:25.250Z,45.15
2023-03-06T08:22:27.168Z,44.85
2023-03-06T08:23:29.532Z,43.55
2023-03-06T08:24:32.393Z,43.89
2023-03-06T08:25:34.579Z,44.48
2023-03-06T08:26:36.413Z,44.15
2023-03-06T08:27:38.227Z,45.08
2023-03-06T08:28:40.437Z,42.83
2023-03-06T08:29:42.173Z,43.54
2023-03-06T08:30:44.029Z,44.94
2023-03-06T08:31:46.944Z,45.07
2023-03-06T08:32:49.513Z,43.41
2023-03-06T08:33:51.490Z,43.42
2023-03-06T08:34:53.612Z,42.55
2023-03-06T08:35:55.421Z,43.55
2023-03-06T08:36:57.490Z,44.04
2023-03-06T08:37:59.231Z,43.69
2023-03-06T08:39:01.759Z,43.38
2023-03-06T08:40:03.682Z,42.49
2023-03-06T08:41:05.587Z,43.29
2023-03-06T08:42:07.846Z,41.66
2023-03-06T08:43:13.051Z,41.52
2023-03-06T08:44:15.964Z,41.40
2023-03-06T08:45:17.805Z,42.82
2023-03-06T08:46:21.973Z,41.75
2023-03-06T08:47:23.980Z,42.68
2023-03-06T08:48:25.997Z,43.66
2023-03-06T08:49:28.154Z,43.88
2023-03-06T08:50:30.691Z,42.49
2023-03-06T08:51:32.442Z,43.41
2023-03-06T08:52:34.386Z,43.73
2023-03-06T08:53:43.152Z,43.16
2023-03-06T08:54:46.035Z,42.47
2023-03-06T08:55:48.140Z,41.95
2023-03-06T08:56:50.155Z,41.19
2023-03-06T08:57:51.974Z,41.62
2023-03-06T08:58:55.160Z,40.18
2023-03-06T08:59:57.463Z,40.87
2023-03-06T09:00:59.665Z,42.33
2023-03-06T09:02:01.549Z,41.12
2023-03-06T09:03:03.775Z,41.41
2023-03-06T09:04:08.043Z,42.33
2023-03-06T09:05:10.228Z,41.86
2023-03-06T09:06:12.248Z,41.62
2023-03-06T09:07:14.519Z,41.22
2023-03-06T09:08:16.821Z,41.19
2023-03-06T09:09:18.546Z,41.81
2023-03-06T09:10:22.256Z,40.66
2023-03-06T09:11:26.414Z,40.96
2023-03-06T09:12:30.725Z,42.42
2023-03-06T09:13:32.866Z,42.33
2023-03-06T09:14:34.873Z,40.38
2023-03-06T09:15:36.618Z,40.54
2023-03-06T09:16:38.603Z,39.44
2023-03-06T09:17:40.893Z,39.72
2023-03-06T09:18:42.764Z,40.15
2023-03-06T09:19:44.707Z,40.17
2023-03-06T09:20:46.470Z,41.15
2023-03-06T09:21:48.253Z,40.70
2023-03-06T09:22:50.418Z,42.52
2023-03-06T09:23:52.684Z,41.16
2023-03-06T09:24:54.772Z,41.51
2023-03-06T09:25:58.475Z,40.26
2023-03-06T09:27:00.508Z,41.67
2023-03-06T09:28:11.381Z,41.52
2023-03-06T09:29:14.288Z,39.38
2023-03-06T09:30:18.374Z,39.02
2023-03-06T09:31:21.052Z,38.93
2023-03-06T09:32:23.475Z,39.68
2023-03-06T09:33:25.178Z,39.87
2023-03-06T09:34:27.048Z,39.72
2023-03-06T09:35:28.882Z,40.50
2023-03-06T09:36:31.087Z,40.84
2023-03-06T09:37:32.904Z,41.56
2023-03-06T09:38:35.380Z,42.25
2023-03-06T09:39:37.605Z,41.57
2023-03-06T09:40:51.484Z,41.38
2023-03-06T09:41:54.271Z,40.33
2023-03-06T09:42:56.506Z,40.00
2023-03-06T09:44:07.124Z,38.84
2023-03-06T09:45:12.350Z,37.79
2023-03-06T09:46:29.061Z,37.83
2023-03-06T09:47:52.248Z,38.01
2023-03-06T09:49:07.468Z,39.68
2023-03-06T09:50:24.096Z,38.61
2023-03-06T09:51:39.518Z,36.88
2023-03-06T09:53:03.058Z,37.92
2023-03-06T09:54:13.093Z,38.07
2023-03-06T09:55:31.599Z,37.83
2023-03-06T09:56:35.934Z,38.30
2023-03-06T09:57:43.215Z,38.56
2023-03-06T09:58:56.206Z,38.63
2023-03-06T10:00:04.241Z,38.45
2023-03-06T10:01:32.259Z,38.63
2023-03-06T10:03:12.876Z,40.03
2023-03-06T10:04:32.955Z,40.22
2023-03-06T10:05:50.236Z,38.81
2023-03-06T10:06:59.790Z,38.65
2023-03-06T10:08:06.021Z,39.79
2023-03-06T10:09:17.410Z,39.86
2023-03-06T10:10:50.001Z,37.84
2023-03-06T10:11:57.334Z,36.95
2023-03-06T10:13:25.536Z,37.18
2023-03-06T10:14:46.648Z,37.11
2023-03-06T10:15:51.989Z,38.67
2023-03-06T10:16:55.049Z,37.98
2023-03-06T10:17:57.433Z,38.12
2023-03-06T10:19:03.353Z,36.87
2023-03-06T10:20:18.844Z,38.06
2023-03-06T10:21:33.313Z,37.49
2023-03-06T10:22:52.570Z,36.11
2023-03-06T10:24:16.937Z,38.33
2023-03-06T10:25:28.030Z,37.44
2023-03-06T10:26:42.300Z,37.90
2023-03-06T10:27:57.623Z,39.71
2023-03-06T10:29:11.643Z,38.18
2023-03-06T10:30:26.518Z,37.83
2023-03-06T10:31:29.204Z,38.63
2023-03-06T10:32:52.973Z,38.59
2023-03-06T10:33:58.363Z,37.76
2023-03-06T10:35:01.144Z,38.15
2023-03-06T10:36:03.452Z,37.77
2023-03-06T10:37:21.433Z,38.74
2023-03-06T10:38:32.176Z,38.64
2023-03-06T10:39:34.308Z,39.32
2023-03-06T10:41:01.996Z,39.59
2023-03-06T10:42:03.888Z,39.80
2023-03-06T10:43:12.253Z,40.16
2023-03-06T10:44:14.799Z,40.74
2023-03-06T10:45:17.589Z,40.42
2023-03-06T10:46:29.297Z,40.23
2023-03-06T10:47:33.302Z,40.40
2023-03-06T10:48:38.150Z,40.12
2023-03-06T10:49:41.433Z,39.96
2023-03-06T10:50:43.152Z,38.65
2023-03-06T10:51:57.676Z,38.04
2023-03-06T10:53:26.701Z,36.91
2023-03-06T10:54:35.020Z,35.09
2023-03-06T10:55:38.263Z,34.31
2023-03-06T10:56:43.033Z,33.35
2023-03-06T10:57:45.348Z,34.25
2023-03-06T10:58:47.029Z,34.40
2023-03-06T10:59:58.034Z,34.26
2023-03-06T11:01:18.947Z,34.73
2023-03-06T11:02:37.316Z,35.01
2023-03-06T11:03:39.376Z,36.51
2023-03-06T11:04:47.360Z,36.87
2023-03-06T11:06:07.717Z,35.62
2023-03-06T11:07:25.981Z,34.28
2023-03-06T11:08:28.582Z,34.15
2023-03-06T11:09:30.337Z,34.81
2023-03-06T11:10:32.162Z,33.82
2023-03-06T11:11:37.780Z,35.30
2023-03-06T11:12:42.689Z,36.19
2023-03-06T11:13:45.102Z,35.96
2023-03-06T11:14:47.241Z,35.73
2023-03-06T11:16:14.927Z,37.40
2023-03-06T11:17:30.176Z,37.52
2023-03-06T11:18:40.047Z,36.16
2023-03-06T11:19:41.950Z,35.59
2023-03-06T11:20:54.118Z,35.78
2023-03-06T11:22:03.093Z,35.90
2023-03-06T11:23:29.368Z,36.54
2023-03-06T11:24:42.486Z,36.56
2023-03-06T11:25:55.471Z,37.20
2023-03-06T11:27:02.129Z,37.63
2023-03-06T11:28:11.663Z,37.77
2023-03-06T11:29:39.055Z,37.84
2023-03-06T11:30:48.422Z,37.63
2023-03-06T11:32:09.223Z,36.70
2023-03-06T11:33:40.152Z,35.05
2023-03-06T11:34:51.144Z,35.24
2023-03-06T11:36:15.564Z,36.06
2023-03-06T11:37:44.024Z,35.04
2023-03-06T11:38:51.261Z,34.67
2023-03-06T11:40:11.741Z,34.73
2023-03-06T11:41:22.940Z,34.79
2023-03-06T11:42:33.030Z,35.03
2023-03-06T11:44:02.725Z,35.27
2023-03-06T11:45:08.938Z,34.45
2023-03-06T11:46:31.063Z,33.61
2023-03-06T11:48:05.740Z,33.86
2023-03-06T11:49:22.969Z,32.99
2023-03-06T11:50:42.817Z,33.50
2023-03-06T11:52:00.614Z,32.82
2023-03-06T11:53:05.524Z,33.55
2023-03-06T11:54:12.889Z,32.96
2023-03-06T11:55:30.195Z,32.92
2023-03-06T11:56:54.288Z,32.69
2023-03-06T11:58:27.014Z,32.28
2023-03-06T11:59:52.633Z,32.22
2023-03-06T12:01:02.470Z,30.15
2023-03-06T12:02:41.410Z,31.21
2023-03-06T12:04:18.664Z,31.87
2023-03-06T12:05:43.042Z,30.79
2023-03-06T12:07:18.903Z,31.82
2023-03-06T12:08:40.206Z,32.45
2023-03-06T12:10:25.424Z,32.76
2023-03-06T12:11:41.994Z,32.00
2023-03-06T12:13:11.494Z,31.44
2023-03-06T12:14:38.180Z,31.40
2023-03-06T12:15:39.980Z,31.81
2023-03-06T12:16:57.091Z,32.17
2023-03-06T12:18:37.700Z,31.61
2023-03-06T12:20:25.062Z,30.02
2023-03-06T12:21:49.560Z,30.36
2023-03-06T12:23:18.775Z,30.97
2023-03-06T12:24:41.350Z,31.13
2023-03-06T12:25:49.915Z,31.49
2023-03-06T12:27:09.353Z,32.30
2023-03-06T12:28:31.343Z,32.18
2023-03-06T12:29:43.908Z,31.43
2023-03-06T12:30:51.660Z,30.56
2023-03-06T12:32:08.086Z,30.70
2023-03-06T12:33:35.456Z,31.82
2023-03-06T12:34:51.937Z,32.18
2023-03-06T12:36:17.563Z,31.29
2023-03-06T12:37:22.543Z,31.38
2023-03-06T12:38:51.903Z,32.98
2023-03-06T12:40:12.674Z,32.61
2023-03-06T12:41:23.204Z,32.42
2023-03-06T12:42:34.159Z,32.97
2023-03-06T12:43:48.989Z,32.80
2023-03-06T12:44:56.958Z,32.78
2023-03-06T12:46:34.701Z,32.46
2023-03-06T12:47:44.599Z,32.37
2023-03-06T12:49:01.824Z,33.02
2023-03-06T12:50:17.302Z,34.31
2023-03-06T12:51:21.319Z,34.55
2023-03-06T12:52:30.305Z,35.29
2023-03-06T12:53:51.415Z,35.14
2023-03-06T12:54:54.178Z,35.10
2023-03-06T12:55:58.709Z,34.83
2023-03-06T12:57:01.136Z,35.20
2023-03-06T12:58:30.411Z,35.03
2023-03-06T12:59:45.626Z,33.52
2023-03-06T13:01:19.360Z,33.67
2023-03-06T13:02:59.161Z,33.63
2023-03-06T13:04:25.599Z,34.29
2023-03-06T13:05:36.469Z,35.02
2023-03-06T13:06:55.857Z,35.16
2023-03-06T13:08:37.355Z,35.26
2023-03-06T13:09:58.277Z,34.79
2023-03-06T13:11:20.494Z,35.31
2023-03-06T13:12:45.207Z,35.52
2023-03-06T13:13:48.797Z,37.11
2023-03-06T13:14:56.638Z,34.44
2023-03-06T13:16:18.789Z,35.24
2023-03-06T13:17:20.639Z,35.55
2023-03-06T13:18:22.781Z,36.40
2023-03-06T13:19:26.836Z,36.56
2023-03-06T13:20:35.234Z,37.43
2023-03-06T13:21:44.285Z,37.43
2023-03-06T13:22:47.502Z,37.65
2023-03-06T13:23:52.578Z,38.20
2023-03-06T13:25:18.862Z,38.73
2023-03-06T13:26:26.618Z,39.33
2023-03-06T13:27:45.482Z,40.28
2023-03-06T13:28:49.699Z,40.08
2023-03-06T13:30:03.137Z,39.54
2023-03-06T13:31:06.018Z,40.14
2023-03-06T13:32:27.923Z,39.05
2023-03-06T13:33:29.633Z,38.65
2023-03-06T13:34:31.295Z,38.61
2023-03-06T13:35:33.045Z,38.37
2023-03-06T13:36:39.688Z,38.03
2023-03-06T13:37:50.581Z,37.52
2023-03-06T13:38:52.367Z,37.55
2023-03-06T13:39:57.152Z,37.75
2023-03-06T13:41:20.667Z,37.95
2023-03-06T13:42:37.056Z,38.88
2023-03-06T13:43:45.110Z,38.06
2023-03-06T13:44:48.813Z,39.01
2023-03-06T13:45:50.802Z,38.37
2023-03-06T13:47:07.378Z,38.53
2023-03-06T13:48:43.749Z,40.20
2023-03-06T13:49:48.321Z,41.00
2023-03-06T13:50:52.609Z,40.44
2023-03-06T13:51:54.326Z,40.63
2023-03-06T13:53:10.973Z,40.21
2023-03-06T13:54:38.425Z,39.60
2023-03-06T13:56:03.232Z,38.46
2023-03-06T13:57:10.959Z,39.74
2023-03-06T13:58:51.536Z,39.77
2023-03-06T14:00:29.973Z,39.25
2023-03-06T14:01:49.751Z,39.96
2023-03-06T14:02:54.873Z,38.52
2023-03-06T14:04:27.568Z,38.70
2023-03-06T14:05:58.929Z,40.49
2023-03-06T14:07:06.890Z,38.14
2023-03-06T14:08:25.161Z,37.69
2023-03-06T14:09:43.741Z,37.72
2023-03-06T14:10:48.936Z,38.60
2023-03-06T14:12:05.989Z,38.50
2023-03-06T14:13:14.402Z,39.24
2023-03-06T14:14:16.945Z,39.04
2023-03-06T14:15:29.894Z,39.81